sensor_id;sensor_type;location;lat;lon;timestamp;temperature;humidity
21092;DHT22;10704;42.678;23.288;2023-01-28T00:02:20;0.00;99.90
21092;DHT22;10704;42.678;23.288;2023-01-28T00:04:46;-0.10;99.90
21092;DHT22;10704;42.678;23.288;2023-01-28T00:07:12;0.00;99.90
21092;DHT22;10704;42.678;23.288;2023-01-28T00:09:38;0.00;99.90
21092;DHT22;10704;42.678;23.288;2023-01-28T00:12:04;0.10;99.90
21092;DHT22;10704;42.678;23.288;2023-01-28T00:14:30;0.10;99.90
21092;DHT22;10704;42.678;23.288;2023-01-28T00:16:56;0.10;99.90
21092;DHT22;10704;42.678;23.288;2023-01-28T00:19:22;0.10;99.90
21092;DHT22;10704;42.678;23.288;2023-01-28T00:21:48;0.00;99.90
21092;DHT22;10704;42.678;23.288;2023-01-28T00:24:14;-0.10;99.90
21092;DHT22;10704;42.678;23.288;2023-01-28T00:26:40;-0.10;99.90
21092;DHT22;10704;42.678;23.288;2023-01-28T00:29:06;0.00;99.90
21092;DHT22;10704;42.678;23.288;2023-01-28T00:31:32;0.00;99.90
21092;DHT22;10704;42.678;23.288;2023-01-28T00:33:59;0.00;99.90
21092;DHT22;10704;42.678;23.288;2023-01-28T00:36:26;0.00;99.90
21092;DHT22;10704;42.678;23.288;2023-01-28T00:38:57;0.00;99.90
21092;DHT22;10704;42.678;23.288;2023-01-28T00:41:25;0.10;99.90
21092;DHT22;10704;42.678;23.288;2023-01-28T00:43:52;0.10;99.90
21092;DHT22;10704;42.678;23.288;2023-01-28T00:46:19;0.00;99.90
21092;DHT22;10704;42.678;23.288;2023-01-28T00:48:47;-0.10;99.90
21092;DHT22;10704;42.678;23.288;2023-01-28T00:51:14;-0.20;99.90
21092;DHT22;10704;42.678;23.288;2023-01-28T00:53:42;-0.20;99.90
21092;DHT22;10704;42.678;23.288;2023-01-28T00:56:14;-0.20;99.90
21092;DHT22;10704;42.678;23.288;2023-01-28T00:58:40;-0.20;99.90
21092;DHT22;10704;42.678;23.288;2023-01-28T01:01:12;-0.20;99.90
21092;DHT22;10704;42.678;23.288;2023-01-28T01:03:38;-0.20;99.90
21092;DHT22;10704;42.678;23.288;2023-01-28T01:06:05;-0.20;99.90
21092;DHT22;10704;42.678;23.288;2023-01-28T01:08:32;-0.20;99.90
21092;DHT22;10704;42.678;23.288;2023-01-28T01:11:06;-0.10;99.90
21092;DHT22;10704;42.678;23.288;2023-01-28T01:13:33;-0.10;99.90
21092;DHT22;10704;42.678;23.288;2023-01-28T01:16:06;-0.20;99.90
21092;DHT22;10704;42.678;23.288;2023-01-28T01:18:33;-0.20;99.90
21092;DHT22;10704;42.678;23.288;2023-01-28T01:21:00;-0.20;99.90
21092;DHT22;10704;42.678;23.288;2023-01-28T01:23:29;-0.20;99.90
21092;DHT22;10704;42.678;23.288;2023-01-28T01:25:56;-0.10;99.90
21092;DHT22;10704;42.678;23.288;2023-01-28T01:28:22;-0.20;99.90
21092;DHT22;10704;42.678;23.288;2023-01-28T01:30:48;-0.20;99.90
21092;DHT22;10704;42.678;23.288;2023-01-28T01:33:15;-0.20;99.90
21092;DHT22;10704;42.678;23.288;2023-01-28T01:35:41;-0.30;99.90
21092;DHT22;10704;42.678;23.288;2023-01-28T01:38:07;-0.20;99.90
21092;DHT22;10704;42.678;23.288;2023-01-28T01:40:33;-0.30;99.90
21092;DHT22;10704;42.678;23.288;2023-01-28T01:42:59;-0.20;99.90
21092;DHT22;10704;42.678;23.288;2023-01-28T01:45:28;-0.20;99.90
21092;DHT22;10704;42.678;23.288;2023-01-28T01:48:06;-0.20;99.90
21092;DHT22;10704;42.678;23.288;2023-01-28T01:50:50;-0.30;99.90
21092;DHT22;10704;42.678;23.288;2023-01-28T01:53:19;-0.20;99.90
21092;DHT22;10704;42.678;23.288;2023-01-28T01:55:49;-0.40;99.90
21092;DHT22;10704;42.678;23.288;2023-01-28T01:58:19;-0.40;99.90
21092;DHT22;10704;42.678;23.288;2023-01-28T02:00:46;-0.40;99.90
21092;DHT22;10704;42.678;23.288;2023-01-28T02:03:13;-0.40;99.90
21092;DHT22;10704;42.678;23.288;2023-01-28T02:05:42;-0.40;99.90
21092;DHT22;10704;42.678;23.288;2023-01-28T02:08:08;-0.40;99.90
21092;DHT22;10704;42.678;23.288;2023-01-28T02:10:49;-0.40;99.90
21092;DHT22;10704;42.678;23.288;2023-01-28T02:13:21;-0.40;99.90
21092;DHT22;10704;42.678;23.288;2023-01-28T02:15:48;-0.30;99.90
21092;DHT22;10704;42.678;23.288;2023-01-28T02:18:15;-0.30;99.90
21092;DHT22;10704;42.678;23.288;2023-01-28T02:26:15;-0.30;99.90
21092;DHT22;10704;42.678;23.288;2023-01-28T02:29:04;-0.30;99.90
21092;DHT22;10704;42.678;23.288;2023-01-28T02:31:50;-0.40;99.90
21092;DHT22;10704;42.678;23.288;2023-01-28T02:34:37;-0.30;99.90
21092;DHT22;10704;42.678;23.288;2023-01-28T02:37:20;-0.30;99.90
21092;DHT22;10704;42.678;23.288;2023-01-28T02:39:55;-0.30;99.90
21092;DHT22;10704;42.678;23.288;2023-01-28T02:42:32;-0.30;99.90
21092;DHT22;10704;42.678;23.288;2023-01-28T02:44:59;-0.30;99.90
21092;DHT22;10704;42.678;23.288;2023-01-28T02:47:25;-0.30;99.90
21092;DHT22;10704;42.678;23.288;2023-01-28T02:50:15;-0.20;99.90
21092;DHT22;10704;42.678;23.288;2023-01-28T02:56:16;-0.30;99.90
21092;DHT22;10704;42.678;23.288;2023-01-28T02:59:19;-0.30;99.90
21092;DHT22;10704;42.678;23.288;2023-01-28T03:02:28;-0.30;99.90
21092;DHT22;10704;42.678;23.288;2023-01-28T03:06:08;-0.30;99.90
21092;DHT22;10704;42.678;23.288;2023-01-28T03:08:06;-0.20;99.90
21092;DHT22;10704;42.678;23.288;2023-01-28T03:10:56;-0.30;99.90
21092;DHT22;10704;42.678;23.288;2023-01-28T03:13:41;-0.30;99.90
21092;DHT22;10704;42.678;23.288;2023-01-28T03:16:30;-0.30;99.90
21092;DHT22;10704;42.678;23.288;2023-01-28T03:19:16;-0.30;99.90
21092;DHT22;10704;42.678;23.288;2023-01-28T03:22:01;-0.30;99.90
21092;DHT22;10704;42.678;23.288;2023-01-28T03:24:50;-0.40;99.90
21092;DHT22;10704;42.678;23.288;2023-01-28T03:27:39;-0.30;99.90
21092;DHT22;10704;42.678;23.288;2023-01-28T03:30:56;-0.30;99.90
21092;DHT22;10704;42.678;23.288;2023-01-28T03:33:48;-0.40;99.90
21092;DHT22;10704;42.678;23.288;2023-01-28T03:36:35;-0.40;99.90
21092;DHT22;10704;42.678;23.288;2023-01-28T03:39:36;-0.30;99.90
21092;DHT22;10704;42.678;23.288;2023-01-28T03:42:09;-0.30;99.90
21092;DHT22;10704;42.678;23.288;2023-01-28T03:44:43;-0.30;99.90
21092;DHT22;10704;42.678;23.288;2023-01-28T03:47:24;-0.30;99.90
21092;DHT22;10704;42.678;23.288;2023-01-28T03:49:52;-0.40;99.90
21092;DHT22;10704;42.678;23.288;2023-01-28T03:52:23;-0.40;99.90
21092;DHT22;10704;42.678;23.288;2023-01-28T03:54:51;-0.40;99.90
21092;DHT22;10704;42.678;23.288;2023-01-28T03:57:20;-0.40;99.90
21092;DHT22;10704;42.678;23.288;2023-01-28T03:59:47;-0.40;99.90
21092;DHT22;10704;42.678;23.288;2023-01-28T04:02:15;-0.40;99.90
21092;DHT22;10704;42.678;23.288;2023-01-28T04:04:42;-0.50;99.90
21092;DHT22;10704;42.678;23.288;2023-01-28T04:07:10;-0.50;99.90
21092;DHT22;10704;42.678;23.288;2023-01-28T04:10:06;-0.50;99.90
21092;DHT22;10704;42.678;23.288;2023-01-28T04:12:53;-0.60;99.90
21092;DHT22;10704;42.678;23.288;2023-01-28T04:15:19;-0.50;99.90
21092;DHT22;10704;42.678;23.288;2023-01-28T04:17:47;-0.50;99.90
21092;DHT22;10704;42.678;23.288;2023-01-28T04:20:20;-0.50;99.90
21092;DHT22;10704;42.678;23.288;2023-01-28T04:22:47;-0.50;99.90
21092;DHT22;10704;42.678;23.288;2023-01-28T04:25:16;-0.50;99.90
21092;DHT22;10704;42.678;23.288;2023-01-28T04:27:43;-0.50;99.90
21092;DHT22;10704;42.678;23.288;2023-01-28T04:30:29;-0.50;99.90
21092;DHT22;10704;42.678;23.288;2023-01-28T04:33:30;-0.50;99.90
21092;DHT22;10704;42.678;23.288;2023-01-28T04:36:14;-0.50;99.90
21092;DHT22;10704;42.678;23.288;2023-01-28T04:39:00;-0.50;99.90
21092;DHT22;10704;42.678;23.288;2023-01-28T04:41:41;-0.60;99.90
21092;DHT22;10704;42.678;23.288;2023-01-28T04:44:15;-0.60;99.90
21092;DHT22;10704;42.678;23.288;2023-01-28T04:47:07;-0.70;99.90
21092;DHT22;10704;42.678;23.288;2023-01-28T04:49:48;-0.70;99.90
21092;DHT22;10704;42.678;23.288;2023-01-28T04:52:46;-0.70;99.90
21092;DHT22;10704;42.678;23.288;2023-01-28T04:55:35;-0.60;99.90
21092;DHT22;10704;42.678;23.288;2023-01-28T04:58:01;-0.60;99.90
21092;DHT22;10704;42.678;23.288;2023-01-28T05:00:28;-0.70;99.90
21092;DHT22;10704;42.678;23.288;2023-01-28T05:02:54;-0.70;99.90
21092;DHT22;10704;42.678;23.288;2023-01-28T05:05:20;-0.80;99.90
21092;DHT22;10704;42.678;23.288;2023-01-28T05:08:08;-0.70;99.90
21092;DHT22;10704;42.678;23.288;2023-01-28T05:10:34;-0.70;99.90
21092;DHT22;10704;42.678;23.288;2023-01-28T05:13:00;-0.70;99.90
21092;DHT22;10704;42.678;23.288;2023-01-28T05:15:26;-0.70;99.90
21092;DHT22;10704;42.678;23.288;2023-01-28T05:17:54;-0.60;99.90
21092;DHT22;10704;42.678;23.288;2023-01-28T05:20:22;-0.60;99.90
21092;DHT22;10704;42.678;23.288;2023-01-28T05:22:49;-0.70;99.90
21092;DHT22;10704;42.678;23.288;2023-01-28T05:25:18;-0.70;99.90
21092;DHT22;10704;42.678;23.288;2023-01-28T05:27:49;-0.70;99.90
21092;DHT22;10704;42.678;23.288;2023-01-28T05:30:17;-0.70;99.90
21092;DHT22;10704;42.678;23.288;2023-01-28T05:32:43;-0.60;99.90
21092;DHT22;10704;42.678;23.288;2023-01-28T05:35:09;-0.40;99.90
21092;DHT22;10704;42.678;23.288;2023-01-28T05:37:35;-0.50;99.90
21092;DHT22;10704;42.678;23.288;2023-01-28T05:40:01;-0.50;99.90
21092;DHT22;10704;42.678;23.288;2023-01-28T05:42:27;-0.60;99.90
21092;DHT22;10704;42.678;23.288;2023-01-28T05:45:03;-0.60;99.90
21092;DHT22;10704;42.678;23.288;2023-01-28T05:47:38;-0.70;99.90
21092;DHT22;10704;42.678;23.288;2023-01-28T05:50:24;-0.60;99.90
21092;DHT22;10704;42.678;23.288;2023-01-28T05:53:10;-0.60;99.90
21092;DHT22;10704;42.678;23.288;2023-01-28T05:55:39;-0.60;99.90
21092;DHT22;10704;42.678;23.288;2023-01-28T05:58:05;-0.60;99.90
21092;DHT22;10704;42.678;23.288;2023-01-28T06:00:31;-0.60;99.90
21092;DHT22;10704;42.678;23.288;2023-01-28T06:02:58;-0.60;99.90
21092;DHT22;10704;42.678;23.288;2023-01-28T06:05:24;-0.70;99.90
21092;DHT22;10704;42.678;23.288;2023-01-28T06:07:51;-0.60;99.90
21092;DHT22;10704;42.678;23.288;2023-01-28T06:10:17;-0.50;99.90
21092;DHT22;10704;42.678;23.288;2023-01-28T06:12:43;-0.40;99.90
21092;DHT22;10704;42.678;23.288;2023-01-28T06:15:35;-0.40;99.90
21092;DHT22;10704;42.678;23.288;2023-01-28T06:18:21;-0.40;99.90
21092;DHT22;10704;42.678;23.288;2023-01-28T06:20:49;-0.40;99.90
21092;DHT22;10704;42.678;23.288;2023-01-28T06:23:15;-0.50;99.90
21092;DHT22;10704;42.678;23.288;2023-01-28T06:25:41;-0.60;99.90
21092;DHT22;10704;42.678;23.288;2023-01-28T06:28:10;-0.50;99.90
21092;DHT22;10704;42.678;23.288;2023-01-28T06:30:36;-0.50;99.90
21092;DHT22;10704;42.678;23.288;2023-01-28T06:33:02;-0.50;99.90
21092;DHT22;10704;42.678;23.288;2023-01-28T06:35:28;-0.50;99.90
21092;DHT22;10704;42.678;23.288;2023-01-28T06:37:54;-0.50;99.90
21092;DHT22;10704;42.678;23.288;2023-01-28T06:40:20;-0.60;99.90
21092;DHT22;10704;42.678;23.288;2023-01-28T06:42:50;-0.60;99.90
21092;DHT22;10704;42.678;23.288;2023-01-28T06:45:16;-0.50;99.90
21092;DHT22;10704;42.678;23.288;2023-01-28T06:47:42;-0.50;99.90
21092;DHT22;10704;42.678;23.288;2023-01-28T06:50:08;-0.50;99.90
21092;DHT22;10704;42.678;23.288;2023-01-28T06:52:34;-0.60;99.90
21092;DHT22;10704;42.678;23.288;2023-01-28T06:55:00;-0.60;99.90
21092;DHT22;10704;42.678;23.288;2023-01-28T06:57:26;-0.60;99.90
21092;DHT22;10704;42.678;23.288;2023-01-28T06:59:52;-0.60;99.90
21092;DHT22;10704;42.678;23.288;2023-01-28T07:02:18;-0.50;99.90
21092;DHT22;10704;42.678;23.288;2023-01-28T07:04:44;-0.50;99.90
21092;DHT22;10704;42.678;23.288;2023-01-28T07:07:10;-0.60;99.90
21092;DHT22;10704;42.678;23.288;2023-01-28T07:09:35;-0.60;99.90
21092;DHT22;10704;42.678;23.288;2023-01-28T07:12:01;-0.60;99.90
21092;DHT22;10704;42.678;23.288;2023-01-28T07:14:30;-0.60;99.90
21092;DHT22;10704;42.678;23.288;2023-01-28T07:16:56;-0.60;99.90
21092;DHT22;10704;42.678;23.288;2023-01-28T07:19:22;-0.60;99.90
21092;DHT22;10704;42.678;23.288;2023-01-28T07:21:48;-0.60;99.90
21092;DHT22;10704;42.678;23.288;2023-01-28T07:24:14;-0.60;99.90
21092;DHT22;10704;42.678;23.288;2023-01-28T07:26:40;-0.50;99.90
21092;DHT22;10704;42.678;23.288;2023-01-28T07:29:08;-0.50;99.90
21092;DHT22;10704;42.678;23.288;2023-01-28T07:31:34;-0.50;99.90
21092;DHT22;10704;42.678;23.288;2023-01-28T07:34:00;-0.50;99.90
21092;DHT22;10704;42.678;23.288;2023-01-28T07:36:26;-0.50;99.90
21092;DHT22;10704;42.678;23.288;2023-01-28T07:38:51;-0.50;99.90
21092;DHT22;10704;42.678;23.288;2023-01-28T07:41:17;-0.50;99.90
21092;DHT22;10704;42.678;23.288;2023-01-28T07:43:43;-0.40;99.90
21092;DHT22;10704;42.678;23.288;2023-01-28T07:46:10;-0.30;99.90
21092;DHT22;10704;42.678;23.288;2023-01-28T07:48:36;-0.30;99.90
21092;DHT22;10704;42.678;23.288;2023-01-28T07:51:02;-0.30;99.90
21092;DHT22;10704;42.678;23.288;2023-01-28T07:53:28;-0.30;99.90
21092;DHT22;10704;42.678;23.288;2023-01-28T07:56:00;-0.20;99.90
21092;DHT22;10704;42.678;23.288;2023-01-28T07:58:26;-0.20;99.90
21092;DHT22;10704;42.678;23.288;2023-01-28T08:00:56;-0.20;99.90
21092;DHT22;10704;42.678;23.288;2023-01-28T08:03:22;-0.30;99.90
21092;DHT22;10704;42.678;23.288;2023-01-28T08:05:51;-0.30;99.90
21092;DHT22;10704;42.678;23.288;2023-01-28T08:08:18;-0.30;99.90
21092;DHT22;10704;42.678;23.288;2023-01-28T08:10:44;-0.20;99.90
21092;DHT22;10704;42.678;23.288;2023-01-28T08:13:12;-0.10;99.90
21092;DHT22;10704;42.678;23.288;2023-01-28T08:15:38;-0.10;99.90
21092;DHT22;10704;42.678;23.288;2023-01-28T08:18:07;-0.20;99.90
21092;DHT22;10704;42.678;23.288;2023-01-28T08:20:33;-0.10;99.90
21092;DHT22;10704;42.678;23.288;2023-01-28T08:25:37;0.00;99.90
21092;DHT22;10704;42.678;23.288;2023-01-28T08:28:04;0.10;99.90
21092;DHT22;10704;42.678;23.288;2023-01-28T08:30:31;0.20;99.90
21092;DHT22;10704;42.678;23.288;2023-01-28T08:32:58;0.20;99.90
21092;DHT22;10704;42.678;23.288;2023-01-28T08:35:25;0.10;99.90
21092;DHT22;10704;42.678;23.288;2023-01-28T08:37:52;0.10;99.90
21092;DHT22;10704;42.678;23.288;2023-01-28T08:40:19;0.20;99.90
21092;DHT22;10704;42.678;23.288;2023-01-28T08:42:52;0.20;99.90
21092;DHT22;10704;42.678;23.288;2023-01-28T08:45:20;0.30;99.90
21092;DHT22;10704;42.678;23.288;2023-01-28T08:47:57;0.30;99.90
21092;DHT22;10704;42.678;23.288;2023-01-28T08:50:25;0.30;99.90
21092;DHT22;10704;42.678;23.288;2023-01-28T08:53:02;0.40;99.90
21092;DHT22;10704;42.678;23.288;2023-01-28T08:55:29;0.40;99.90
21092;DHT22;10704;42.678;23.288;2023-01-28T08:57:55;0.40;99.90
21092;DHT22;10704;42.678;23.288;2023-01-28T09:00:22;0.50;99.90
21092;DHT22;10704;42.678;23.288;2023-01-28T09:02:52;0.50;99.90
21092;DHT22;10704;42.678;23.288;2023-01-28T09:05:18;0.60;99.90
21092;DHT22;10704;42.678;23.288;2023-01-28T09:07:45;0.70;99.90
21092;DHT22;10704;42.678;23.288;2023-01-28T09:10:11;0.90;99.90
21092;DHT22;10704;42.678;23.288;2023-01-28T09:12:37;1.00;99.90
21092;DHT22;10704;42.678;23.288;2023-01-28T09:15:04;1.20;99.90
21092;DHT22;10704;42.678;23.288;2023-01-28T09:17:30;1.20;99.90
21092;DHT22;10704;42.678;23.288;2023-01-28T09:19:56;1.30;99.90
21092;DHT22;10704;42.678;23.288;2023-01-28T09:22:22;1.30;99.90
21092;DHT22;10704;42.678;23.288;2023-01-28T09:24:48;1.10;99.90
21092;DHT22;10704;42.678;23.288;2023-01-28T09:27:14;1.10;99.90
21092;DHT22;10704;42.678;23.288;2023-01-28T09:29:56;1.10;99.90
21092;DHT22;10704;42.678;23.288;2023-01-28T09:32:22;1.10;99.90
21092;DHT22;10704;42.678;23.288;2023-01-28T09:35:14;1.20;99.90
21092;DHT22;10704;42.678;23.288;2023-01-28T09:37:41;1.10;99.90
21092;DHT22;10704;42.678;23.288;2023-01-28T09:40:29;1.00;99.90
21092;DHT22;10704;42.678;23.288;2023-01-28T09:45:41;0.90;99.90
21092;DHT22;10704;42.678;23.288;2023-01-28T09:48:13;0.90;99.90
21092;DHT22;10704;42.678;23.288;2023-01-28T09:53:48;1.20;99.90
21092;DHT22;10704;42.678;23.288;2023-01-28T09:56:35;1.30;99.90
21092;DHT22;10704;42.678;23.288;2023-01-28T09:59:16;0.90;99.90
21092;DHT22;10704;42.678;23.288;2023-01-28T10:07:09;1.20;99.90
21092;DHT22;10704;42.678;23.288;2023-01-28T10:19:00;0.80;99.90
21092;DHT22;10704;42.678;23.288;2023-01-28T10:21:38;0.80;99.90
21092;DHT22;10704;42.678;23.288;2023-01-28T10:24:15;0.80;99.90
21092;DHT22;10704;42.678;23.288;2023-01-28T10:26:43;0.70;99.90
21092;DHT22;10704;42.678;23.288;2023-01-28T10:29:18;0.70;99.90
21092;DHT22;10704;42.678;23.288;2023-01-28T10:32:05;0.70;99.90
21092;DHT22;10704;42.678;23.288;2023-01-28T10:34:38;0.80;99.90
21092;DHT22;10704;42.678;23.288;2023-01-28T10:37:04;0.80;99.90
21092;DHT22;10704;42.678;23.288;2023-01-28T10:39:30;0.80;99.90
21092;DHT22;10704;42.678;23.288;2023-01-28T10:41:56;1.00;99.90
21092;DHT22;10704;42.678;23.288;2023-01-28T10:44:35;1.00;99.90
21092;DHT22;10704;42.678;23.288;2023-01-28T10:47:10;1.00;99.90
21092;DHT22;10704;42.678;23.288;2023-01-28T10:49:43;1.10;99.90
21092;DHT22;10704;42.678;23.288;2023-01-28T10:52:14;0.90;99.90
21092;DHT22;10704;42.678;23.288;2023-01-28T10:54:41;0.80;99.90
21092;DHT22;10704;42.678;23.288;2023-01-28T10:57:11;1.00;99.90
21092;DHT22;10704;42.678;23.288;2023-01-28T10:59:38;1.20;99.90
21092;DHT22;10704;42.678;23.288;2023-01-28T11:02:30;1.30;99.90
21092;DHT22;10704;42.678;23.288;2023-01-28T11:05:21;1.50;99.90
21092;DHT22;10704;42.678;23.288;2023-01-28T11:08:01;1.60;99.90
21092;DHT22;10704;42.678;23.288;2023-01-28T11:10:35;1.70;99.90
21092;DHT22;10704;42.678;23.288;2023-01-28T11:13:04;1.70;99.90
21092;DHT22;10704;42.678;23.288;2023-01-28T11:15:31;1.50;99.90
21092;DHT22;10704;42.678;23.288;2023-01-28T11:18:00;1.40;99.90
21092;DHT22;10704;42.678;23.288;2023-01-28T11:20:29;1.30;99.90
21092;DHT22;10704;42.678;23.288;2023-01-28T11:26:46;1.30;99.90
21092;DHT22;10704;42.678;23.288;2023-01-28T11:33:19;1.10;99.90
21092;DHT22;10704;42.678;23.288;2023-01-28T11:36:02;1.00;99.90
21092;DHT22;10704;42.678;23.288;2023-01-28T11:42:21;1.40;99.90
21092;DHT22;10704;42.678;23.288;2023-01-28T11:44:48;1.50;99.90
21092;DHT22;10704;42.678;23.288;2023-01-28T11:51:08;1.60;99.90
21092;DHT22;10704;42.678;23.288;2023-01-28T11:53:57;1.70;99.90
21092;DHT22;10704;42.678;23.288;2023-01-28T12:14:15;1.60;99.90
21092;DHT22;10704;42.678;23.288;2023-01-28T12:25:55;1.90;99.90
21092;DHT22;10704;42.678;23.288;2023-01-28T12:43:36;1.80;99.90
21092;DHT22;10704;42.678;23.288;2023-01-28T12:46:14;1.80;99.90
21092;DHT22;10704;42.678;23.288;2023-01-28T12:56:38;1.70;99.90
21092;DHT22;10704;42.678;23.288;2023-01-28T12:59:13;1.90;99.90
21092;DHT22;10704;42.678;23.288;2023-01-28T13:01:49;2.10;99.90
21092;DHT22;10704;42.678;23.288;2023-01-28T13:11:13;1.80;99.90
21092;DHT22;10704;42.678;23.288;2023-01-28T13:17:30;1.70;99.90
21092;DHT22;10704;42.678;23.288;2023-01-28T13:19:57;1.80;99.90
21092;DHT22;10704;42.678;23.288;2023-01-28T13:25:22;1.80;99.90
21092;DHT22;10704;42.678;23.288;2023-01-28T13:27:57;1.90;99.90
21092;DHT22;10704;42.678;23.288;2023-01-28T13:30:32;1.90;99.90
21092;DHT22;10704;42.678;23.288;2023-01-28T13:33:02;2.00;99.90
21092;DHT22;10704;42.678;23.288;2023-01-28T13:35:37;2.00;99.90
21092;DHT22;10704;42.678;23.288;2023-01-28T13:38:15;2.00;99.90
21092;DHT22;10704;42.678;23.288;2023-01-28T13:40:59;1.80;99.90
21092;DHT22;10704;42.678;23.288;2023-01-28T14:21:18;1.40;99.90
21092;DHT22;10704;42.678;23.288;2023-01-28T14:23:47;1.60;99.90
21092;DHT22;10704;42.678;23.288;2023-01-28T14:32:59;1.30;99.90
21092;DHT22;10704;42.678;23.288;2023-01-28T14:35:31;1.30;99.90
21092;DHT22;10704;42.678;23.288;2023-01-28T14:37:59;1.20;99.90
21092;DHT22;10704;42.678;23.288;2023-01-28T14:40:38;1.10;99.90
21092;DHT22;10704;42.678;23.288;2023-01-28T15:07:35;1.00;99.90
21092;DHT22;10704;42.678;23.288;2023-01-28T15:10:05;1.00;99.90
21092;DHT22;10704;42.678;23.288;2023-01-28T15:12:40;0.80;99.90
21092;DHT22;10704;42.678;23.288;2023-01-28T15:15:29;0.80;99.90
21092;DHT22;10704;42.678;23.288;2023-01-28T15:21:44;0.80;99.90
21092;DHT22;10704;42.678;23.288;2023-01-28T15:24:13;0.80;99.90
21092;DHT22;10704;42.678;23.288;2023-01-28T15:26:44;0.80;99.90
21092;DHT22;10704;42.678;23.288;2023-01-28T15:29:50;0.70;99.90
21092;DHT22;10704;42.678;23.288;2023-01-28T15:35:27;0.70;99.90
21092;DHT22;10704;42.678;23.288;2023-01-28T15:37:53;0.60;99.90
21092;DHT22;10704;42.678;23.288;2023-01-28T15:40:21;0.70;99.90
21092;DHT22;10704;42.678;23.288;2023-01-28T15:42:48;0.70;99.90
21092;DHT22;10704;42.678;23.288;2023-01-28T15:45:20;0.70;99.90
21092;DHT22;10704;42.678;23.288;2023-01-28T15:47:48;0.70;99.90
21092;DHT22;10704;42.678;23.288;2023-01-28T15:50:22;0.70;99.90
21092;DHT22;10704;42.678;23.288;2023-01-28T15:52:49;0.60;99.90
21092;DHT22;10704;42.678;23.288;2023-01-28T15:57:52;0.60;99.90
21092;DHT22;10704;42.678;23.288;2023-01-28T16:00:19;0.50;99.90
21092;DHT22;10704;42.678;23.288;2023-01-28T16:02:47;0.60;99.90
21092;DHT22;10704;42.678;23.288;2023-01-28T16:05:25;0.60;99.90
21092;DHT22;10704;42.678;23.288;2023-01-28T16:07:51;0.50;99.90
21092;DHT22;10704;42.678;23.288;2023-01-28T16:10:27;0.40;99.90
21092;DHT22;10704;42.678;23.288;2023-01-28T16:15:35;0.40;99.90
21092;DHT22;10704;42.678;23.288;2023-01-28T16:18:04;0.40;99.90
21092;DHT22;10704;42.678;23.288;2023-01-28T16:20:32;0.40;99.90
21092;DHT22;10704;42.678;23.288;2023-01-28T16:23:00;0.40;99.90
21092;DHT22;10704;42.678;23.288;2023-01-28T16:25:32;0.50;99.90
21092;DHT22;10704;42.678;23.288;2023-01-28T16:28:00;0.50;99.90
21092;DHT22;10704;42.678;23.288;2023-01-28T16:30:27;0.50;99.90
21092;DHT22;10704;42.678;23.288;2023-01-28T16:32:53;0.50;99.90
21092;DHT22;10704;42.678;23.288;2023-01-28T16:35:26;0.50;99.90
21092;DHT22;10704;42.678;23.288;2023-01-28T16:37:53;0.60;99.90
21092;DHT22;10704;42.678;23.288;2023-01-28T16:40:23;0.50;99.90
21092;DHT22;10704;42.678;23.288;2023-01-28T16:42:52;0.40;99.90
21092;DHT22;10704;42.678;23.288;2023-01-28T16:45:22;0.30;99.90
21092;DHT22;10704;42.678;23.288;2023-01-28T16:47:48;0.30;99.90
21092;DHT22;10704;42.678;23.288;2023-01-28T16:54:11;0.50;99.90
21092;DHT22;10704;42.678;23.288;2023-01-28T16:56:39;0.50;99.90
21092;DHT22;10704;42.678;23.288;2023-01-28T16:59:04;0.50;99.90
21092;DHT22;10704;42.678;23.288;2023-01-28T17:01:30;0.50;99.90
21092;DHT22;10704;42.678;23.288;2023-01-28T17:03:56;0.50;99.90
21092;DHT22;10704;42.678;23.288;2023-01-28T17:06:22;0.50;99.90
21092;DHT22;10704;42.678;23.288;2023-01-28T17:08:48;0.60;99.90
21092;DHT22;10704;42.678;23.288;2023-01-28T17:11:14;0.50;99.90
21092;DHT22;10704;42.678;23.288;2023-01-28T17:13:40;0.60;99.90
21092;DHT22;10704;42.678;23.288;2023-01-28T17:16:06;0.60;99.90
21092;DHT22;10704;42.678;23.288;2023-01-28T17:18:32;0.60;99.90
21092;DHT22;10704;42.678;23.288;2023-01-28T17:21:03;0.60;99.90
21092;DHT22;10704;42.678;23.288;2023-01-28T17:23:31;0.60;99.90
21092;DHT22;10704;42.678;23.288;2023-01-28T17:26:06;0.60;99.90
21092;DHT22;10704;42.678;23.288;2023-01-28T17:28:32;0.70;99.90
21092;DHT22;10704;42.678;23.288;2023-01-28T17:30:59;0.70;99.90
21092;DHT22;10704;42.678;23.288;2023-01-28T17:33:25;0.60;99.90
21092;DHT22;10704;42.678;23.288;2023-01-28T17:35:51;0.80;99.90
21092;DHT22;10704;42.678;23.288;2023-01-28T17:38:17;0.70;99.90
21092;DHT22;10704;42.678;23.288;2023-01-28T17:40:43;0.80;99.90
21092;DHT22;10704;42.678;23.288;2023-01-28T17:43:09;0.70;99.90
21092;DHT22;10704;42.678;23.288;2023-01-28T17:45:34;0.50;99.90
21092;DHT22;10704;42.678;23.288;2023-01-28T17:48:00;0.50;99.90
21092;DHT22;10704;42.678;23.288;2023-01-28T17:50:26;0.40;99.90
21092;DHT22;10704;42.678;23.288;2023-01-28T17:52:56;0.40;99.90
21092;DHT22;10704;42.678;23.288;2023-01-28T17:55:23;0.40;99.90
21092;DHT22;10704;42.678;23.288;2023-01-28T17:57:52;0.30;99.90
21092;DHT22;10704;42.678;23.288;2023-01-28T18:00:18;0.20;99.90
21092;DHT22;10704;42.678;23.288;2023-01-28T18:02:48;0.20;99.90
21092;DHT22;10704;42.678;23.288;2023-01-28T18:05:14;0.20;99.90
21092;DHT22;10704;42.678;23.288;2023-01-28T18:07:40;0.30;99.90
21092;DHT22;10704;42.678;23.288;2023-01-28T18:10:08;0.20;99.90
21092;DHT22;10704;42.678;23.288;2023-01-28T18:12:34;0.30;99.90
21092;DHT22;10704;42.678;23.288;2023-01-28T18:15:03;0.30;99.90
21092;DHT22;10704;42.678;23.288;2023-01-28T18:17:29;0.20;99.90
21092;DHT22;10704;42.678;23.288;2023-01-28T18:19:55;0.20;99.90
21092;DHT22;10704;42.678;23.288;2023-01-28T18:22:22;0.20;99.90
21092;DHT22;10704;42.678;23.288;2023-01-28T18:24:48;0.10;99.90
21092;DHT22;10704;42.678;23.288;2023-01-28T18:27:14;0.20;99.90
21092;DHT22;10704;42.678;23.288;2023-01-28T18:29:40;0.20;99.90
21092;DHT22;10704;42.678;23.288;2023-01-28T18:32:09;0.20;99.90
21092;DHT22;10704;42.678;23.288;2023-01-28T18:34:36;0.20;99.90
21092;DHT22;10704;42.678;23.288;2023-01-28T18:37:02;0.30;99.90
21092;DHT22;10704;42.678;23.288;2023-01-28T18:39:28;0.20;99.90
21092;DHT22;10704;42.678;23.288;2023-01-28T18:41:59;0.30;99.90
21092;DHT22;10704;42.678;23.288;2023-01-28T18:44:27;0.40;99.90
21092;DHT22;10704;42.678;23.288;2023-01-28T18:46:54;0.30;99.90
21092;DHT22;10704;42.678;23.288;2023-01-28T18:49:20;0.20;99.90
21092;DHT22;10704;42.678;23.288;2023-01-28T18:51:46;0.20;99.90
21092;DHT22;10704;42.678;23.288;2023-01-28T18:54:14;0.20;99.90
21092;DHT22;10704;42.678;23.288;2023-01-28T18:56:45;0.30;99.90
21092;DHT22;10704;42.678;23.288;2023-01-28T18:59:13;0.20;99.90
21092;DHT22;10704;42.678;23.288;2023-01-28T19:01:40;0.30;99.90
21092;DHT22;10704;42.678;23.288;2023-01-28T19:04:23;0.30;99.90
21092;DHT22;10704;42.678;23.288;2023-01-28T19:06:49;0.40;99.90